createdAt,value
2019-04-06T00:01:55.137Z,99.90
2019-04-06T00:04:00.749Z,99.90
2019-04-06T00:06:06.025Z,99.90
2019-04-06T00:08:11.223Z,99.90
2019-04-06T00:10:16.994Z,99.90
2019-04-06T00:12:22.247Z,99.90
2019-04-06T00:14:27.264Z,99.90
2019-04-06T00:16:32.983Z,99.90
2019-04-06T00:18:37.965Z,99.90
2019-04-06T00:20:43.112Z,99.90
2019-04-06T00:22:48.215Z,99.90
2019-04-06T00:24:53.334Z,99.90
2019-04-06T00:27:02.755Z,99.90
2019-04-06T00:29:08.015Z,99.90
2019-04-06T00:31:35.276Z,99.90
2019-04-06T00:33:40.448Z,99.90
2019-04-06T00:35:45.922Z,99.90
2019-04-06T00:37:51.009Z,99.90
2019-04-06T00:39:56.369Z,99.90
2019-04-06T00:42:01.563Z,99.90
2019-04-06T00:44:06.704Z,99.90
2019-04-06T00:46:11.877Z,99.90
2019-04-06T00:48:16.870Z,99.90
2019-04-06T00:50:22.049Z,99.90
2019-04-06T00:52:27.579Z,99.90
2019-04-06T00:54:32.611Z,99.90
2019-04-06T00:56:38.025Z,99.90
2019-04-06T00:58:43.468Z,99.90
2019-04-06T01:00:48.639Z,99.90
2019-04-06T01:02:54.713Z,99.90
2019-04-06T01:05:00.007Z,99.90
2019-04-06T01:07:05.342Z,99.90
2019-04-06T01:09:12.332Z,99.90
2019-04-06T01:11:17.712Z,99.90
2019-04-06T01:13:22.880Z,99.90
2019-04-06T01:15:28.127Z,99.90
2019-04-06T01:17:33.286Z,99.90
2019-04-06T01:19:38.479Z,99.90
2019-04-06T01:21:43.842Z,99.90
2019-04-06T01:23:52.653Z,99.90
2019-04-06T01:26:06.712Z,99.90
2019-04-06T01:28:05.429Z,99.90
2019-04-06T01:30:10.903Z,99.90
2019-04-06T01:32:16.416Z,99.90
2019-04-06T01:34:22.237Z,99.90
2019-04-06T01:36:27.940Z,99.90
2019-04-06T01:38:33.413Z,99.90
2019-04-06T01:40:38.529Z,99.90
2019-04-06T01:42:43.711Z,99.90
2019-04-06T01:44:48.897Z,99.90
2019-04-06T01:46:54.035Z,99.90
2019-04-06T01:48:59.297Z,99.90
2019-04-06T01:51:04.525Z,99.90
2019-04-06T01:53:09.423Z,99.90
2019-04-06T01:55:14.662Z,99.90
2019-04-06T01:57:20.181Z,99.90
2019-04-06T01:59:25.258Z,99.90
2019-04-06T02:01:38.183Z,99.90
2019-04-06T02:03:43.318Z,99.90
2019-04-06T02:05:48.709Z,99.90
2019-04-06T02:07:54.115Z,99.90
2019-04-06T02:09:59.314Z,99.90
2019-04-06T02:12:04.943Z,99.90
2019-04-06T02:14:10.085Z,99.90
2019-04-06T02:16:15.208Z,99.90
2019-04-06T02:18:20.352Z,99.90
2019-04-06T02:20:25.355Z,99.90
2019-04-06T02:22:30.522Z,99.90
2019-04-06T02:24:36.035Z,99.90
2019-04-06T02:26:41.495Z,99.90
2019-04-06T02:28:47.146Z,99.90
2019-04-06T02:31:03.315Z,99.90
2019-04-06T02:33:21.977Z,99.90
2019-04-06T02:35:51.075Z,99.90
2019-04-06T02:38:15.435Z,99.90
2019-04-06T02:40:36.353Z,99.90
2019-04-06T02:42:59.221Z,99.90
2019-04-06T02:45:04.440Z,99.90
2019-04-06T02:47:09.796Z,99.90
2019-04-06T02:49:14.833Z,99.90
2019-04-06T02:51:20.034Z,99.90
2019-04-06T02:53:25.369Z,99.90
2019-04-06T02:55:30.926Z,99.90
2019-04-06T02:57:36.181Z,99.90
2019-04-06T02:59:41.727Z,99.90
2019-04-06T03:01:46.896Z,99.90
2019-04-06T03:03:52.387Z,99.90
2019-04-06T03:05:57.720Z,99.90
2019-04-06T03:08:02.803Z,99.90
2019-04-06T03:10:08.205Z,99.90
2019-04-06T03:12:13.303Z,99.90
2019-04-06T03:14:18.826Z,99.90
2019-04-06T03:16:24.055Z,99.90
2019-04-06T03:18:29.483Z,99.90
2019-04-06T03:20:34.500Z,99.90
2019-04-06T03:22:39.608Z,99.90
2019-04-06T03:24:44.760Z,99.90
2019-04-06T03:27:00.644Z,99.90
2019-04-06T03:28:58.021Z,99.90
2019-04-06T03:31:03.573Z,99.90
2019-04-06T03:33:09.233Z,99.90
2019-04-06T03:35:14.598Z,99.90
2019-04-06T03:37:19.649Z,99.90
2019-04-06T03:39:24.908Z,99.90
2019-04-06T03:41:30.094Z,99.90
2019-04-06T03:43:35.423Z,99.90
2019-04-06T03:45:40.537Z,99.90
2019-04-06T03:47:45.540Z,99.90
2019-04-06T03:49:51.511Z,99.90
2019-04-06T03:51:56.556Z,99.90
2019-04-06T03:54:01.561Z,99.90
2019-04-06T03:56:06.724Z,99.90
2019-04-06T03:58:11.870Z,99.90
2019-04-06T04:00:17.421Z,99.90
2019-04-06T04:02:22.513Z,99.90
2019-04-06T04:04:27.555Z,99.90
2019-04-06T04:06:32.814Z,99.90
2019-04-06T04:08:38.057Z,99.90
2019-04-06T04:10:43.507Z,99.90
2019-04-06T04:12:48.579Z,99.90
2019-04-06T04:14:53.940Z,99.90
2019-04-06T04:16:59.160Z,99.90
2019-04-06T04:19:04.402Z,99.90
2019-04-06T04:21:09.420Z,99.90
2019-04-06T04:23:14.498Z,99.90
2019-04-06T04:25:20.350Z,99.90
2019-04-06T04:27:29.361Z,99.90
2019-04-06T04:29:32.435Z,99.90
2019-04-06T04:31:37.955Z,99.90
2019-04-06T04:33:43.027Z,99.90
2019-04-06T04:35:48.497Z,99.90
2019-04-06T04:37:53.614Z,99.90
2019-04-06T04:39:58.699Z,99.90
2019-04-06T04:42:03.710Z,99.90
2019-04-06T04:44:08.928Z,99.90
2019-04-06T04:46:14.072Z,99.90
2019-04-06T04:48:19.184Z,99.90
2019-04-06T04:50:24.365Z,99.90
2019-04-06T04:52:29.403Z,99.90
2019-04-06T04:54:34.744Z,99.90
2019-04-06T04:56:40.071Z,99.90
2019-04-06T04:58:44.945Z,99.90
2019-04-06T05:00:50.107Z,99.90
2019-04-06T05:02:55.246Z,99.90
2019-04-06T05:05:00.251Z,99.90
2019-04-06T05:07:05.447Z,99.90
2019-04-06T05:09:10.461Z,99.90
2019-04-06T05:11:15.555Z,99.90
2019-04-06T05:13:21.224Z,99.90
2019-04-06T05:16:22.441Z,99.90
2019-04-06T05:18:27.562Z,99.90
2019-04-06T05:20:32.777Z,99.90
2019-04-06T05:22:37.768Z,99.90
2019-04-06T05:24:43.148Z,99.90
2019-04-06T05:26:48.937Z,99.90
2019-04-06T05:28:55.258Z,99.90
2019-04-06T05:31:01.547Z,99.90
2019-04-06T05:33:06.579Z,99.90
2019-04-06T05:35:12.023Z,99.90
2019-04-06T05:37:20.565Z,99.90
2019-04-06T05:39:25.988Z,99.90
2019-04-06T05:41:31.120Z,99.90
2019-04-06T05:43:36.434Z,99.90
2019-04-06T05:45:41.726Z,99.90
2019-04-06T05:47:46.924Z,99.90
2019-04-06T05:49:51.903Z,99.90
2019-04-06T05:51:57.028Z,99.90
2019-04-06T05:54:02.540Z,99.90
2019-04-06T05:56:07.905Z,99.90
2019-04-06T05:58:13.259Z,99.90
2019-04-06T06:00:18.477Z,99.90
2019-04-06T06:02:23.577Z,99.90
2019-04-06T06:04:28.659Z,99.90
2019-04-06T06:06:34.020Z,99.90
2019-04-06T06:08:39.217Z,99.90
2019-04-06T06:10:44.565Z,99.90
2019-04-06T06:12:49.978Z,99.90
2019-04-06T06:14:55.275Z,99.90
2019-04-06T06:17:00.238Z,99.90
2019-04-06T06:19:06.280Z,99.90
2019-04-06T06:21:11.591Z,99.90
2019-04-06T06:23:19.934Z,99.90
2019-04-06T06:25:25.091Z,99.90
2019-04-06T06:27:30.542Z,99.90
2019-04-06T06:29:35.523Z,99.90
2019-04-06T06:31:40.615Z,99.90
2019-04-06T06:33:46.016Z,99.90
2019-04-06T06:35:51.908Z,99.90
2019-04-06T06:37:56.930Z,99.90
2019-04-06T06:40:06.844Z,99.90
2019-04-06T06:42:12.346Z,99.90
2019-04-06T06:44:17.522Z,99.90
2019-04-06T06:46:23.795Z,99.90
2019-04-06T06:48:29.279Z,99.90
2019-04-06T06:50:34.767Z,99.90
2019-04-06T06:52:40.173Z,99.90
2019-04-06T06:54:45.499Z,99.90
2019-04-06T06:56:51.783Z,99.90
2019-04-06T06:58:56.848Z,99.90
2019-04-06T07:01:03.295Z,99.90
2019-04-06T07:03:08.784Z,99.90
2019-04-06T07:05:16.847Z,99.90
2019-04-06T07:07:22.072Z,99.90
2019-04-06T07:09:27.143Z,99.90
2019-04-06T07:11:32.283Z,99.90
2019-04-06T07:13:37.557Z,99.90
2019-04-06T07:15:43.378Z,99.90
2019-04-06T07:17:48.907Z,99.90
2019-04-06T07:19:54.106Z,99.90
2019-04-06T07:21:59.524Z,99.90
2019-04-06T07:24:05.158Z,99.90
2019-04-06T07:26:13.569Z,99.90
2019-04-06T07:28:18.855Z,99.90
2019-04-06T07:30:24.282Z,99.90
2019-04-06T07:32:29.667Z,99.90
2019-04-06T07:34:34.979Z,99.90
2019-04-06T07:36:42.739Z,99.90
2019-04-06T07:38:48.108Z,99.90
2019-04-06T07:40:53.195Z,99.90
2019-04-06T07:42:58.803Z,99.90
2019-04-06T07:45:04.522Z,99.90
2019-04-06T07:47:09.978Z,99.90
2019-04-06T07:49:15.443Z,99.90
2019-04-06T07:51:20.473Z,99.90
2019-04-06T07:53:25.622Z,99.90
2019-04-06T07:55:30.767Z,99.90
2019-04-06T07:57:36.050Z,99.90
2019-04-06T07:59:41.214Z,99.90
2019-04-06T08:01:48.368Z,99.90
2019-04-06T08:03:53.222Z,99.90
2019-04-06T08:05:58.686Z,99.90
2019-04-06T08:08:03.826Z,99.90
2019-04-06T08:10:09.663Z,99.90
2019-04-06T08:12:14.577Z,99.90
2019-04-06T08:14:19.705Z,99.90
2019-04-06T08:16:25.265Z,99.90
2019-04-06T08:18:30.642Z,99.90
2019-04-06T08:20:36.198Z,99.90
2019-04-06T08:22:41.367Z,99.90
2019-04-06T08:24:46.518Z,99.90
2019-04-06T08:26:51.713Z,99.90
2019-04-06T08:29:01.870Z,99.90
2019-04-06T08:31:04.260Z,99.90
2019-04-06T08:33:10.479Z,99.90
2019-04-06T08:35:24.822Z,99.90
2019-04-06T08:37:22.753Z,98.90
2019-04-06T08:39:27.975Z,98.10
2019-04-06T08:41:33.159Z,96.30
2019-04-06T08:43:38.245Z,95.60
2019-04-06T08:45:43.371Z,96.20
2019-04-06T08:47:48.790Z,95.80
2019-04-06T08:49:54.325Z,94.50
2019-04-06T08:51:59.519Z,94.30
2019-04-06T08:54:04.832Z,93.10
2019-04-06T08:56:10.190Z,92.60
2019-04-06T08:58:15.265Z,91.10
2019-04-06T09:00:21.149Z,90.50
2019-04-06T09:02:28.444Z,88.70
2019-04-06T09:04:35.984Z,85.20
2019-04-06T09:06:41.093Z,88.40
2019-04-06T09:08:46.546Z,83.80
2019-04-06T09:10:51.661Z,81.00
2019-04-06T09:12:56.898Z,84.10
2019-04-06T09:15:02.289Z,84.60
2019-04-06T09:17:07.451Z,84.40
2019-04-06T09:19:12.637Z,84.60
2019-04-06T09:21:17.929Z,84.90
2019-04-06T09:23:23.366Z,85.00
2019-04-06T09:25:28.627Z,83.90
2019-04-06T09:27:33.641Z,85.70
2019-04-06T09:29:38.863Z,83.60
2019-04-06T09:31:44.153Z,83.20
2019-04-06T09:33:49.358Z,80.00
2019-04-06T09:35:54.510Z,79.40
2019-04-06T09:37:59.885Z,75.90
2019-04-06T09:40:05.206Z,77.30
2019-04-06T09:42:10.541Z,74.30
2019-04-06T09:44:24.017Z,73.40
2019-04-06T09:46:43.666Z,74.90
2019-04-06T09:48:57.196Z,71.30
2019-04-06T09:51:27.622Z,70.50
2019-04-06T09:53:49.366Z,68.40
2019-04-06T09:56:16.296Z,67.30
2019-04-06T09:58:55.624Z,67.60
2019-04-06T10:01:22.582Z,66.20
2019-04-06T10:03:41.117Z,66.60
2019-04-06T10:05:59.977Z,66.30
2019-04-06T10:08:42.183Z,64.90
2019-04-06T10:11:05.031Z,68.30
2019-04-06T10:13:20.096Z,69.30
2019-04-06T10:15:35.060Z,68.30
2019-04-06T10:17:52.889Z,63.90
2019-04-06T10:20:32.226Z,65.60
2019-04-06T10:23:08.385Z,68.00
2019-04-06T10:25:28.987Z,70.70
2019-04-06T10:27:45.695Z,70.70
2019-04-06T10:30:08.861Z,72.10
2019-04-06T10:32:31.801Z,75.40
2019-04-06T10:34:54.446Z,76.30
2019-04-06T10:37:36.604Z,69.00
2019-04-06T10:39:46.239Z,71.60
2019-04-06T10:42:10.414Z,68.20
2019-04-06T10:44:37.816Z,69.00
2019-04-06T10:47:10.806Z,68.20
2019-04-06T10:49:24.631Z,68.50
2019-04-06T10:51:40.242Z,72.50
2019-04-06T10:53:58.770Z,74.90
2019-04-06T10:56:24.237Z,70.10
2019-04-06T10:58:43.675Z,67.30
2019-04-06T11:01:07.933Z,68.30
2019-04-06T11:03:20.105Z,70.00
2019-04-06T11:05:41.344Z,70.20
2019-04-06T11:07:53.956Z,69.20
2019-04-06T11:10:16.907Z,71.20
2019-04-06T11:12:47.934Z,74.10
2019-04-06T11:15:11.000Z,75.10
2019-04-06T11:17:54.009Z,73.60
2019-04-06T11:20:17.390Z,70.80
2019-04-06T11:22:40.271Z,70.70
2019-04-06T11:25:13.905Z,73.60
2019-04-06T11:27:56.240Z,69.60
2019-04-06T11:30:20.421Z,68.70
2019-04-06T11:32:44.502Z,66.90
2019-04-06T11:35:11.750Z,71.50
2019-04-06T11:37:25.170Z,69.60
2019-04-06T11:39:55.401Z,68.70
2019-04-06T11:42:22.413Z,67.60
2019-04-06T11:44:51.834Z,68.50
2019-04-06T11:47:10.398Z,71.60
2019-04-06T11:49:37.552Z,72.10
2019-04-06T11:52:10.744Z,70.70
2019-04-06T11:54:26.628Z,69.60
2019-04-06T11:56:45.893Z,70.30
2019-04-06T11:59:07.063Z,72.50
2019-04-06T12:01:36.948Z,73.70
2019-04-06T12:03:53.635Z,72.60
2019-04-06T12:06:09.611Z,71.30
2019-04-06T12:08:31.544Z,69.70
2019-04-06T12:10:54.388Z,71.00
2019-04-06T12:13:17.234Z,70.20
2019-04-06T12:15:41.420Z,68.80
2019-04-06T12:17:56.584Z,71.00
2019-04-06T12:20:15.340Z,70.10
2019-04-06T12:22:43.660Z,68.50
2019-04-06T12:25:13.987Z,66.50
2019-04-06T12:27:36.477Z,68.30
2019-04-06T12:29:57.698Z,68.90
2019-04-06T12:32:21.874Z,67.80
2019-04-06T12:34:46.463Z,68.40
2019-04-06T12:37:10.744Z,66.60
2019-04-06T12:39:29.588Z,67.70
2019-04-06T12:41:57.039Z,66.10
2019-04-06T12:44:19.866Z,69.30
2019-04-06T12:46:34.778Z,69.40
2019-04-06T12:48:52.513Z,68.90
2019-04-06T12:51:15.449Z,71.00
2019-04-06T12:53:31.702Z,71.40
2019-04-06T12:56:02.354Z,70.90
2019-04-06T12:58:23.736Z,69.70
2019-04-06T13:00:52.461Z,70.00
2019-04-06T13:03:17.991Z,71.30
2019-04-06T13:05:45.810Z,71.20
2019-04-06T13:08:08.301Z,71.70
2019-04-06T13:10:34.814Z,72.40
2019-04-06T13:13:13.759Z,73.50
2019-04-06T13:15:27.601Z,74.60
2019-04-06T13:17:48.218Z,76.50
2019-04-06T13:20:15.171Z,77.10
2019-04-06T13:22:51.709Z,75.40
2019-04-06T13:25:24.801Z,75.60
2019-04-06T13:27:41.875Z,75.70
2019-04-06T13:30:09.143Z,75.70
2019-04-06T13:32:45.683Z,75.30
2019-04-06T13:35:12.566Z,75.20
2019-04-06T13:37:41.245Z,74.20
2019-04-06T13:40:11.517Z,75.00
2019-04-06T13:42:44.985Z,75.80
2019-04-06T13:45:08.018Z,75.00
2019-04-06T13:47:29.710Z,77.00
2019-04-06T13:49:48.824Z,77.10
2019-04-06T13:52:05.175Z,76.70
2019-04-06T13:54:41.588Z,77.20
2019-04-06T13:57:04.027Z,77.20
2019-04-06T13:59:40.198Z,77.30
2019-04-06T14:01:55.460Z,78.10
2019-04-06T14:04:18.004Z,76.80
2019-04-06T14:06:39.099Z,77.50
2019-04-06T14:09:02.138Z,78.60
2019-04-06T14:11:45.139Z,77.90
2019-04-06T14:14:10.095Z,77.50
2019-04-06T14:16:32.740Z,78.40
2019-04-06T14:19:09.012Z,80.90
2019-04-06T14:21:35.848Z,82.70
2019-04-06T14:23:49.687Z,83.20
2019-04-06T14:26:12.536Z,82.70
2019-04-06T14:28:27.806Z,82.60
2019-04-06T14:30:39.537Z,83.40
2019-04-06T14:33:16.375Z,84.50
2019-04-06T14:35:30.445Z,84.50
2019-04-06T14:37:46.505Z,83.90
2019-04-06T14:40:09.457Z,83.70
2019-04-06T14:42:28.484Z,85.20
2019-04-06T14:44:50.419Z,84.50
2019-04-06T14:47:13.794Z,85.00
2019-04-06T14:49:37.102Z,84.60
2019-04-06T14:52:10.209Z,84.70
2019-04-06T14:54:33.897Z,84.50
2019-04-06T14:57:00.966Z,85.20
2019-04-06T14:59:27.914Z,84.20
2019-04-06T15:01:57.877Z,84.60
2019-04-06T15:04:28.985Z,84.60
2019-04-06T15:06:53.158Z,85.60
2019-04-06T15:09:13.327Z,85.60
2019-04-06T15:11:36.082Z,87.70
2019-04-06T15:14:05.484Z,88.90
2019-04-06T15:16:33.781Z,89.00
2019-04-06T15:19:06.973Z,88.70
2019-04-06T15:21:40.203Z,89.20
2019-04-06T15:24:04.247Z,88.30
2019-04-06T15:26:24.891Z,89.00
2019-04-06T15:28:45.130Z,89.50
2019-04-06T15:31:12.465Z,90.00
2019-04-06T15:33:36.463Z,90.10
2019-04-06T15:36:03.580Z,90.10
2019-04-06T15:38:22.663Z,90.10
2019-04-06T15:40:37.305Z,90.30
2019-04-06T15:42:58.236Z,90.70
2019-04-06T15:45:19.341Z,90.40
2019-04-06T15:47:46.721Z,90.50
2019-04-06T15:50:19.903Z,90.50
2019-04-06T15:52:43.862Z,90.80
2019-04-06T15:55:06.617Z,91.10
2019-04-06T15:57:42.466Z,91.10
2019-04-06T15:59:56.874Z,91.30
2019-04-06T16:02:21.409Z,91.40
2019-04-06T16:04:42.819Z,91.40
2019-04-06T16:07:01.369Z,91.00
2019-04-06T16:09:24.012Z,91.20
2019-04-06T16:11:51.367Z,91.00
2019-04-06T16:14:13.911Z,91.60
2019-04-06T16:16:38.153Z,91.50
2019-04-06T16:19:08.417Z,91.30
2019-04-06T16:21:41.406Z,91.80
2019-04-06T16:24:08.861Z,91.40
2019-04-06T16:26:21.296Z,91.40
2019-04-06T16:28:47.725Z,91.40
2019-04-06T16:31:23.405Z,91.60
2019-04-06T16:33:35.035Z,91.50
2019-04-06T16:36:11.873Z,91.50
2019-04-06T16:38:51.761Z,91.70
2019-04-06T16:41:32.046Z,91.80
2019-04-06T16:43:59.375Z,91.90
2019-04-06T16:46:15.148Z,92.40
2019-04-06T16:48:47.920Z,94.60
2019-04-06T16:51:15.105Z,95.50
2019-04-06T16:53:44.996Z,96.40
2019-04-06T16:56:02.579Z,96.60
2019-04-06T16:58:29.527Z,96.80
2019-04-06T17:00:41.976Z,96.60
2019-04-06T17:02:53.304Z,96.60
2019-04-06T17:05:16.934Z,97.00
2019-04-06T17:07:36.823Z,97.90
2019-04-06T17:10:12.731Z,98.20
2019-04-06T17:12:27.731Z,98.50
2019-04-06T17:14:51.675Z,98.00
2019-04-06T17:17:25.775Z,97.00
2019-04-06T17:19:55.499Z,96.80
2019-04-06T17:22:07.687Z,96.00
2019-04-06T17:24:31.534Z,95.70
2019-04-06T17:26:58.483Z,95.70
2019-04-06T17:29:16.479Z,95.60
2019-04-06T17:31:31.152Z,95.00
2019-04-06T17:33:54.861Z,95.10
2019-04-06T17:36:09.116Z,95.10
2019-04-06T17:38:25.413Z,95.30
2019-04-06T17:40:40.074Z,95.40
2019-04-06T17:43:05.725Z,95.90
2019-04-06T17:45:32.801Z,96.00
2019-04-06T17:47:51.177Z,96.10
2019-04-06T17:50:07.631Z,96.10
2019-04-06T17:52:34.873Z,96.50
2019-04-06T17:55:07.884Z,96.80
2019-04-06T17:57:26.739Z,97.50
2019-04-06T17:59:59.735Z,97.30
2019-04-06T18:02:23.478Z,97.90
2019-04-06T18:04:50.061Z,98.10
2019-04-06T18:07:13.996Z,99.20
2019-04-06T18:09:32.136Z,99.00
2019-04-06T18:11:47.476Z,99.90
2019-04-06T18:13:53.146Z,99.90
2019-04-06T18:15:57.970Z,99.90
2019-04-06T18:18:03.237Z,99.90
2019-04-06T18:20:08.660Z,99.90
2019-04-06T18:22:13.524Z,99.90
2019-04-06T18:24:18.381Z,99.90
2019-04-06T18:26:23.158Z,99.90
2019-04-06T18:28:28.058Z,99.90
2019-04-06T18:30:32.957Z,99.90
2019-04-06T18:32:57.847Z,99.90
2019-04-06T18:34:54.757Z,99.90
2019-04-06T18:37:22.460Z,99.90
2019-04-06T18:39:27.771Z,99.90
2019-04-06T18:41:33.574Z,99.90
2019-04-06T18:43:39.843Z,99.90
2019-04-06T18:45:45.213Z,99.90
2019-04-06T18:47:50.123Z,99.90
2019-04-06T18:49:55.644Z,99.90
2019-04-06T18:52:01.786Z,99.90
2019-04-06T18:54:08.375Z,99.90
2019-04-06T18:56:13.954Z,99.90
2019-04-06T18:58:18.737Z,99.90
2019-04-06T19:00:24.718Z,99.90
2019-04-06T19:02:29.489Z,99.90
2019-04-06T19:04:34.298Z,99.90
2019-04-06T19:06:39.546Z,99.90
2019-04-06T19:08:44.604Z,99.90
2019-04-06T19:10:49.936Z,99.90
2019-04-06T19:12:54.878Z,99.90
2019-04-06T19:15:00.134Z,99.90
2019-04-06T19:17:05.046Z,99.90
2019-04-06T19:19:09.861Z,99.90
2019-04-06T19:21:14.946Z,99.90
2019-04-06T19:23:20.247Z,99.90
2019-04-06T19:25:25.075Z,99.90
2019-04-06T19:27:30.334Z,99.90
2019-04-06T19:29:35.515Z,99.90
2019-04-06T19:31:41.001Z,99.90
2019-04-06T19:33:46.462Z,99.90
2019-04-06T19:35:52.045Z,99.90
2019-04-06T19:37:57.457Z,99.90
2019-04-06T19:40:03.020Z,99.90
2019-04-06T19:42:08.332Z,99.90
2019-04-06T19:44:13.488Z,99.90
2019-04-06T19:46:19.020Z,99.90
2019-04-06T19:48:24.526Z,99.90
2019-04-06T19:50:30.499Z,99.90
2019-04-06T19:52:35.890Z,99.90
2019-04-06T19:54:41.439Z,99.90
2019-04-06T19:56:46.753Z,99.90
2019-04-06T19:58:52.425Z,99.90
2019-04-06T20:00:58.667Z,99.90
2019-04-06T20:03:04.296Z,99.90
2019-04-06T20:05:09.720Z,99.90
2019-04-06T20:07:15.520Z,99.90
2019-04-06T20:09:20.773Z,99.90
2019-04-06T20:11:26.524Z,99.90
2019-04-06T20:13:32.115Z,99.90
2019-04-06T20:15:37.145Z,99.90
2019-04-06T20:17:43.509Z,99.90
2019-04-06T20:19:48.587Z,99.90
2019-04-06T20:21:53.881Z,99.90
2019-04-06T20:23:59.113Z,99.90
2019-04-06T20:26:04.742Z,99.90
2019-04-06T20:28:10.226Z,99.90
2019-04-06T20:30:16.131Z,99.90
2019-04-06T20:32:21.363Z,99.90
2019-04-06T20:34:27.083Z,99.90
2019-04-06T20:36:32.236Z,99.90
2019-04-06T20:38:37.931Z,99.90
2019-04-06T20:40:43.478Z,99.90
2019-04-06T20:42:48.788Z,99.90
2019-04-06T20:44:54.073Z,99.90
2019-04-06T20:46:59.474Z,99.90
2019-04-06T20:49:04.610Z,99.90
2019-04-06T20:51:10.531Z,99.90
2019-04-06T20:53:15.770Z,99.90
2019-04-06T20:55:20.923Z,99.90
2019-04-06T20:57:26.378Z,99.90
2019-04-06T20:59:31.633Z,99.90
2019-04-06T21:01:37.162Z,99.90
2019-04-06T21:03:43.636Z,99.90
2019-04-06T21:05:49.361Z,99.90
2019-04-06T21:07:55.378Z,99.90
2019-04-06T21:10:00.668Z,99.90
2019-04-06T21:12:05.604Z,99.90
2019-04-06T21:14:11.126Z,99.90
2019-04-06T21:16:16.867Z,99.90
2019-04-06T21:18:22.198Z,99.90
2019-04-06T21:20:27.643Z,99.90
2019-04-06T21:22:32.916Z,99.90
2019-04-06T21:24:38.126Z,99.90
2019-04-06T21:26:44.304Z,99.90
2019-04-06T21:28:49.682Z,99.90
2019-04-06T21:30:55.503Z,99.90
2019-04-06T21:33:01.140Z,99.90
2019-04-06T21:35:08.252Z,99.90
2019-04-06T21:37:13.452Z,99.90
2019-04-06T21:39:18.682Z,99.90
2019-04-06T21:41:24.594Z,99.90
2019-04-06T21:43:30.353Z,99.90
2019-04-06T21:45:36.608Z,99.90
2019-04-06T21:47:41.962Z,99.90
2019-04-06T21:49:47.862Z,99.90
2019-04-06T21:51:54.201Z,99.90
2019-04-06T21:54:01.366Z,99.90
2019-04-06T21:56:08.276Z,99.90
2019-04-06T21:58:14.168Z,99.90
2019-04-06T22:00:32.615Z,99.90
2019-04-06T22:02:39.360Z,99.90
2019-04-06T22:04:45.229Z,99.90
2019-04-06T22:06:50.829Z,99.90
2019-04-06T22:08:56.640Z,99.90
2019-04-06T22:11:02.695Z,99.90
2019-04-06T22:13:08.384Z,99.90
2019-04-06T22:15:15.509Z,99.90
2019-04-06T22:17:21.337Z,99.90
2019-04-06T22:19:26.900Z,99.90
2019-04-06T22:21:32.116Z,99.90
2019-04-06T22:23:42.185Z,99.90
2019-04-06T22:25:43.996Z,99.90
2019-04-06T22:27:49.290Z,99.90
2019-04-06T22:29:55.504Z,99.90
2019-04-06T22:32:00.683Z,99.90
2019-04-06T22:34:06.125Z,99.90
2019-04-06T22:36:12.349Z,99.90
2019-04-06T22:38:17.439Z,99.90
2019-04-06T22:40:22.608Z,99.90
2019-04-06T22:42:28.208Z,99.90
2019-04-06T22:44:33.535Z,99.90
2019-04-06T22:46:38.711Z,99.90
2019-04-06T22:48:44.359Z,99.90
2019-04-06T22:50:49.574Z,99.90
2019-04-06T22:52:54.825Z,99.90
2019-04-06T22:54:59.810Z,99.90
2019-04-06T22:57:05.366Z,99.90
2019-04-06T22:59:11.185Z,99.90
2019-04-06T23:01:17.418Z,99.90
2019-04-06T23:03:33.287Z,99.90
2019-04-06T23:05:42.906Z,99.90
2019-04-06T23:07:48.513Z,99.90
2019-04-06T23:09:54.143Z,99.90
2019-04-06T23:11:59.543Z,99.90
2019-04-06T23:14:04.863Z,99.90
2019-04-06T23:16:10.323Z,99.90
2019-04-06T23:18:16.177Z,99.90
2019-04-06T23:20:21.768Z,99.90
2019-04-06T23:22:28.623Z,99.90
2019-04-06T23:24:34.476Z,99.90
2019-04-06T23:26:39.947Z,99.90
2019-04-06T23:28:45.648Z,99.90
2019-04-06T23:30:50.776Z,99.90
2019-04-06T23:32:56.043Z,99.90
2019-04-06T23:35:02.328Z,99.90
2019-04-06T23:37:08.357Z,99.90
2019-04-06T23:39:14.766Z,99.90
2019-04-06T23:41:20.458Z,99.90
2019-04-06T23:43:25.641Z,99.90
2019-04-06T23:45:31.097Z,99.90
2019-04-06T23:47:36.362Z,99.90
2019-04-06T23:49:43.411Z,99.90
2019-04-06T23:51:48.676Z,99.90
2019-04-06T23:53:53.708Z,99.90
2019-04-06T23:55:58.790Z,99.90
2019-04-06T23:58:04.225Z,99.90
